Skip Navigation Links Skip Navigation Links

Current Weather

Gary Muni, Gary, Ind.

For information only: do not use for flight planning or navigation.
Latest weather
Observation time Wednesday, October 27, 2021 1:15 AM CDT
Local time Wednesday, October 27, 2021 1:29 AM CDT
Flight conditions Visual Meteorological Conditions
Winds
Wind speed calm
Visibility 10 mi.
Sky condition
Ceiling unlimited
Sky clear
Temperature 41°F
Dewpoint 39°F
Altimeter 30.04 in.Hg
Derived measurements
Relative humidity 94%
Wind chill 41°F
Density altitude -660 ft.
Remarks
Fully automated report.
Automated weather observing station with precipitation discriminator.
METAR KGYY 270615Z AUTO 00000KT 10SM CLR 05/04 A3004 RMK AO2 T00480039

Settings

Location code

InnerDrive.Weather 4.0.6770.0 Release CLR 4.0.30319.42000
Copyright ©2018 Inner Drive Technology. All rights reserved. Portions Copyright ©1986-2018 David Braverman.

Find weather

Site navigation


Skip Navigation Links

Place info

Page info

PayPal - The safer, easier way to pay online!

Return home.

Copyright ©2021 Inner Drive Technology. Purveyors of fine, hand-crafted computer software. Page printed 2021-10-27T06:29:18 UTC.